Deva — A8OK3 — position and weather

sailwx.info

Track history (hours):
 
Tides and Currents Weather Stations Pressure Air Temp Water Temp Dewpoint Dewpoint Depression Visibility Wind Speed Wind Dir Waves Ship Positions

Deva

Last reported at 2016-Nov-30 05:33 UTC. Time now 2016-Dec-06 15:57 UTC.
Position N 01°50' E 102°28'.

Length 259 m; draft 12.3 m.

Type: Ship (hazmat cat A). MMSI: 636013644.

Date/timePositionNaut miles runAvg speedWind from/ knotsBaromVisibWave heightAir tempDewpointWater temp
2016-Nov-30 05:33N 01°50' E 102°28'1816.6
2016-Nov-30 04:29N 01°43' E 102°44'7314.1
2016-Nov-29 23:19N 01°11' E 103°49'1013.3
2016-Nov-29 22:33N 01°15' E 103°59'  
2016-Nov-26 15:29N 22°17' E 114°06'1111.9
2016-Nov-26 14:33N 22°22' E 113°55'9 8.8
2016-Nov-26 13:31N 22°30' E 113°51'2 0.2
2016-Nov-26 01:28N 22°28' E 113°52'29814.0
2016-Nov-25 04:08N 24°18' E 118°54'1819.6
2016-Nov-25 03:14N 24°30' E 119°08'  
2016-Nov-22 09:31N 31°17' E 121°50'1313.0
2016-Nov-22 08:33N 31°22' E 121°36'1 0.7
2016-Nov-22 07:33N 31°22' E 121°35'0 0.0
2016-Nov-22 05:33N 31°22' E 121°35'0 0.1
2016-Nov-22 04:33N 31°22' E 121°35'0 0.1
2016-Nov-22 03:33N 31°22' E 121°35'0 0.1
2016-Nov-22 02:33N 31°22' E 121°35'0 0.0
2016-Nov-21 23:33N 31°22' E 121°35'114 3.4
2016-Nov-20 14:33N 29°45' E 122°43'10 9.7
2016-Nov-20 13:34N 29°40' E 122°33'1111.5
2016-Nov-20 12:34N 29°44' E 122°20'29 9.5
2016-Nov-20 09:31N 29°57' E 121°51'0 0.0
2016-Nov-20 08:16N 29°57' E 121°51'0 0.0
2016-Nov-20 07:10N 29°57' E 121°51'0 0.0
2016-Nov-20 06:28N 29°57' E 121°51'  
Track history (hours):
 
Tides and Currents Weather Stations Pressure Air Temp Water Temp Dewpoint Dewpoint Depression Visibility Wind Speed Wind Dir Waves Ship Positions

Deva

Last reported at 2016-Nov-30 05:33 UTC. Time now 2016-Dec-06 15:57 UTC.
Position N 01°50' E 102°28'.

Length 259 m; draft 12.3 m.

Type: Ship (hazmat cat A). MMSI: 636013644.

Date/timePositionNaut miles runAvg speedWind from/ knotsBaromVisibWave heightAir tempDewpointWater temp
2016-Nov-30 05:33N 01°50' E 102°28'1816.6
2016-Nov-30 04:29N 01°43' E 102°44'7314.1
2016-Nov-29 23:19N 01°11' E 103°49'1013.3
2016-Nov-29 22:33N 01°15' E 103°59'  
2016-Nov-26 15:29N 22°17' E 114°06'1111.9
2016-Nov-26 14:33N 22°22' E 113°55'9 8.8
2016-Nov-26 13:31N 22°30' E 113°51'2 0.2
2016-Nov-26 01:28N 22°28' E 113°52'29814.0
2016-Nov-25 04:08N 24°18' E 118°54'1819.6
2016-Nov-25 03:14N 24°30' E 119°08'  
2016-Nov-22 09:31N 31°17' E 121°50'1313.0
2016-Nov-22 08:33N 31°22' E 121°36'1 0.7
2016-Nov-22 07:33N 31°22' E 121°35'0 0.0
2016-Nov-22 05:33N 31°22' E 121°35'0 0.1
2016-Nov-22 04:33N 31°22' E 121°35'0 0.1
2016-Nov-22 03:33N 31°22' E 121°35'0 0.1
2016-Nov-22 02:33N 31°22' E 121°35'0 0.0
2016-Nov-21 23:33N 31°22' E 121°35'114 3.4
2016-Nov-20 14:33N 29°45' E 122°43'10 9.7
2016-Nov-20 13:34N 29°40' E 122°33'1111.5
2016-Nov-20 12:34N 29°44' E 122°20'29 9.5
2016-Nov-20 09:31N 29°57' E 121°51'0 0.0
2016-Nov-20 08:16N 29°57' E 121°51'0 0.0
2016-Nov-20 07:10N 29°57' E 121°51'0 0.0
2016-Nov-20 06:28N 29°57' E 121°51'  

Dump ship's entire track history